Friday, February 23, 2018, 8:15 PM GMT
Back to Local

CYHZ, Halifax International Airport

Location: , , Canada Lat: 44.883
Local Time: 8:15 PM GMT (20:15 GMT) Lon: -63.5
Time Zone: GMT Elev: 475 ft

Show me the last for .
Show Coded

Time T Td Feel RH Dir Speed Gust Alt SLP Vis Weather Sky Remarks
2018-02-23 20:00 32 5 - 31 - Calm - 30.48 30.51 15 FEW150 BKN260 None
2018-02-23 19:00 32 7 29 33 Variable 3 - 30.52 30.55 15 BKN260 None
2018-02-23 18:00 30 9 23 39 320° 7 - 30.56 30.59 15 BKN260 None
2018-02-23 17:00 28 10 20 46 300° 9 - 30.59 30.62 15 SCT260 None
2018-02-23 16:00 27 10 19 49 300° 7 - 30.62 30.65 15 FEW260 Pressure falling rapidly
2018-02-23 15:00 23 10 15 57 20° 7 - 30.65 30.68 15 FEW260 None
2018-02-23 14:00 21 9 13 57 20° 7 - 30.66 30.69 15 FEW025 FEW260 None
2018-02-23 13:00 19 10 9 67 10° 9 - 30.66 30.69 15 FEW025 FEW260 None
2018-02-23 12:00 18 10 8 72 350° 7 - 30.65 30.68 15 FEW025 FEW260 None
2018-02-23 11:00 16 9 3 72 350° 10 - 30.63 30.66 15 FEW025 None
2018-02-23 10:00 18 9 0 67 350° 14 22 30.62 30.65 15 CLR None
2018-02-23 09:00 18 9 1 67 350° 13 20 30.62 30.65 15 CLR None
2018-02-23 08:00 19 10 2 67 350° 17 25 30.60 30.63 15 CLR None
2018-02-23 07:00 21 12 4 67 340° 17 24 30.60 30.63 15 CLR None
2018-02-23 06:00 21 14 11 73 360° 9 - 30.57 30.60 15 CLR None
2018-02-23 05:00 23 16 12 73 330° 12 - 30.56 30.59 15 CLR None
2018-02-23 04:00 23 16 15 73 320° 7 - 30.55 30.58 15 CLR None
2018-02-23 03:00 25 16 20 68 360° 3 - 30.55 30.58 15 FEW200 None
2018-02-23 02:00 25 16 19 68 20° 5 - 30.55 30.58 15 BKN180 None
2018-02-23 01:00 27 16 23 63 30° 3 - 30.54 30.57 15 OVC150 None
2018-02-23 00:00 27 16 21 63 20° 5 - 30.54 30.57 15 OVC150 None
2018-02-22 23:00 28 18 20 63 20° 9 - 30.55 30.58 15 OVC160 None
2018-02-22 22:00 28 14 20 54 320° 9 - 30.50 30.53 15 OVC150 None
2018-02-22 21:00 30 14 21 50 330° 12 - 30.50 30.52 15 OVC140 None

Support USWX by starting your Amazon purchase here.